createdAt,value
2018-07-16T00:01:36.318Z,15.76
2018-07-16T00:04:42.078Z,15.70
2018-07-16T00:07:47.260Z,15.66
2018-07-16T00:10:53.069Z,15.64
2018-07-16T00:13:59.059Z,15.61
2018-07-16T00:17:05.054Z,15.55
2018-07-16T00:20:11.377Z,15.54
2018-07-16T00:23:17.417Z,15.47
2018-07-16T00:26:23.177Z,15.44
2018-07-16T00:29:29.262Z,15.39
2018-07-16T00:32:35.047Z,15.39
2018-07-16T00:35:41.093Z,15.33
2018-07-16T00:38:46.804Z,15.29
2018-07-16T00:41:51.624Z,15.26
2018-07-16T00:44:56.768Z,15.23
2018-07-16T00:48:01.630Z,15.17
2018-07-16T00:51:06.768Z,15.15
2018-07-16T00:54:11.941Z,15.09
2018-07-16T00:57:17.235Z,15.05
2018-07-16T01:00:22.981Z,15.02
2018-07-16T01:03:33.694Z,14.99
2018-07-16T01:06:39.189Z,14.95
2018-07-16T01:09:44.087Z,14.91
2018-07-16T01:12:49.328Z,14.89
2018-07-16T01:15:54.956Z,14.85
2018-07-16T01:18:59.867Z,14.81
2018-07-16T01:22:04.723Z,14.77
2018-07-16T01:25:11.563Z,14.75
2018-07-16T01:28:16.447Z,14.72
2018-07-16T01:31:21.682Z,14.68
2018-07-16T01:34:28.591Z,14.67
2018-07-16T01:37:34.344Z,14.62
2018-07-16T01:40:39.261Z,14.57
2018-07-16T01:43:45.092Z,14.59
2018-07-16T01:46:49.983Z,14.55
2018-07-16T01:49:55.840Z,14.49
2018-07-16T01:53:01.242Z,14.53
2018-07-16T01:56:07.046Z,14.45
2018-07-16T01:59:13.253Z,14.42
2018-07-16T02:02:19.377Z,14.41
2018-07-16T02:05:25.399Z,14.35
2018-07-16T02:08:32.635Z,14.32
2018-07-16T02:11:38.448Z,14.30
2018-07-16T02:14:44.101Z,14.27
2018-07-16T02:17:50.079Z,14.24
2018-07-16T02:20:55.888Z,14.23
2018-07-16T02:24:00.789Z,14.17
2018-07-16T02:27:06.782Z,14.14
2018-07-16T02:30:13.712Z,14.11
2018-07-16T02:33:19.456Z,14.10
2018-07-16T02:36:25.260Z,14.08
2018-07-16T02:39:31.161Z,14.04
2018-07-16T02:42:36.553Z,14.01
2018-07-16T02:45:42.698Z,13.98
2018-07-16T02:48:48.067Z,13.94
2018-07-16T02:51:54.098Z,13.91
2018-07-16T02:54:59.980Z,13.89
2018-07-16T02:58:06.272Z,13.86
2018-07-16T03:01:11.659Z,13.83
2018-07-16T03:04:17.477Z,13.80
2018-07-16T03:07:22.424Z,13.77
2018-07-16T03:10:28.291Z,13.75
2018-07-16T03:13:33.380Z,13.73
2018-07-16T03:16:38.935Z,13.66
2018-07-16T03:19:45.300Z,13.68
2018-07-16T03:22:52.114Z,13.63
2018-07-16T03:25:57.914Z,13.62
2018-07-16T03:29:04.495Z,13.61
2018-07-16T03:32:11.901Z,13.60
2018-07-16T03:35:17.777Z,13.59
2018-07-16T03:38:24.225Z,13.58
2018-07-16T03:41:30.349Z,13.57
2018-07-16T03:44:35.848Z,13.56
2018-07-16T03:47:41.312Z,13.52
2018-07-16T03:50:47.392Z,13.51
2018-07-16T03:53:53.886Z,13.53
2018-07-16T03:57:00.458Z,13.49
2018-07-16T04:00:06.231Z,13.50
2018-07-16T04:03:13.381Z,13.47
2018-07-16T04:06:18.805Z,13.47
2018-07-16T04:09:25.014Z,13.45
2018-07-16T04:12:31.575Z,13.45
2018-07-16T04:15:37.821Z,13.51
2018-07-16T04:18:43.403Z,13.45
2018-07-16T04:21:49.509Z,13.46
2018-07-16T04:24:55.012Z,13.45
2018-07-16T04:28:00.658Z,13.48
2018-07-16T04:31:06.064Z,13.52
2018-07-16T04:34:12.422Z,13.49
2018-07-16T04:37:19.057Z,13.48
2018-07-16T04:40:25.649Z,13.49
2018-07-16T04:43:31.911Z,13.52
2018-07-16T04:46:37.309Z,13.47
2018-07-16T04:49:43.590Z,13.47
2018-07-16T04:52:49.684Z,13.51
2018-07-16T04:55:54.977Z,13.56
2018-07-16T04:59:01.145Z,13.54
2018-07-16T05:02:07.294Z,13.57
2018-07-16T05:05:12.874Z,13.59
2018-07-16T05:08:18.205Z,13.62
2018-07-16T05:11:24.569Z,13.70
2018-07-16T05:14:30.311Z,13.75
2018-07-16T05:17:36.263Z,13.86
2018-07-16T05:20:42.246Z,13.99
2018-07-16T05:23:47.863Z,14.09
2018-07-16T05:26:54.229Z,14.16
2018-07-16T05:29:59.476Z,14.22
2018-07-16T05:33:05.487Z,14.29
2018-07-16T05:36:10.767Z,14.36
2018-07-16T05:39:17.142Z,14.41
2018-07-16T05:42:22.824Z,14.49
2018-07-16T05:45:28.033Z,14.55
2018-07-16T05:48:34.329Z,14.63
2018-07-16T05:51:40.492Z,14.69
2018-07-16T05:54:53.026Z,14.77
2018-07-16T05:57:59.203Z,14.85
2018-07-16T06:01:04.762Z,14.95
2018-07-16T06:04:10.727Z,15.02
2018-07-16T06:07:16.549Z,15.10
2018-07-16T06:10:22.542Z,15.18
2018-07-16T06:13:28.297Z,15.26
2018-07-16T06:16:34.046Z,15.33
2018-07-16T06:19:38.970Z,15.41
2018-07-16T06:22:43.845Z,15.49
2018-07-16T06:25:49.223Z,15.56
2018-07-16T06:28:54.317Z,15.64
2018-07-16T06:31:59.439Z,15.72
2018-07-16T06:35:04.385Z,15.80
2018-07-16T06:38:10.353Z,15.90
2018-07-16T06:41:16.108Z,15.99
2018-07-16T06:44:23.005Z,16.07
2018-07-16T06:47:29.206Z,16.16
2018-07-16T06:50:34.876Z,16.25
2018-07-16T06:53:39.755Z,16.33
2018-07-16T06:56:44.658Z,16.42
2018-07-16T06:59:49.497Z,16.49
2018-07-16T07:02:54.387Z,16.59
2018-07-16T07:05:59.284Z,16.68
2018-07-16T07:09:05.821Z,16.77
2018-07-16T07:12:11.205Z,16.86
2018-07-16T07:15:16.453Z,16.94
2018-07-16T07:18:22.265Z,17.03
2018-07-16T07:21:28.048Z,17.12
2018-07-16T07:24:33.477Z,17.22
2018-07-16T07:27:39.124Z,17.30
2018-07-16T07:30:44.051Z,17.41
2018-07-16T07:33:50.382Z,17.50
2018-07-16T07:36:55.302Z,17.61
2018-07-16T07:40:00.206Z,17.71
2018-07-16T07:43:05.180Z,17.80
2018-07-16T07:46:11.376Z,17.89
2018-07-16T07:49:16.525Z,18.00
2018-07-16T07:52:22.656Z,18.11
2018-07-16T07:55:27.582Z,18.21
2018-07-16T07:58:34.587Z,18.32
2018-07-16T08:01:40.139Z,18.42
2018-07-16T08:04:45.049Z,18.54
2018-07-16T08:07:50.840Z,18.64
2018-07-16T08:10:56.444Z,18.75
2018-07-16T08:14:02.336Z,18.86
2018-07-16T08:17:07.533Z,18.98
2018-07-16T08:20:13.893Z,19.08
2018-07-16T08:23:19.609Z,19.20
2018-07-16T08:26:26.167Z,19.32
2018-07-16T08:29:31.891Z,19.42
2018-07-16T08:32:37.117Z,19.54
2018-07-16T08:35:43.085Z,19.64
2018-07-16T08:38:48.205Z,19.75
2018-07-16T08:41:53.647Z,19.87
2018-07-16T08:44:59.563Z,19.98
2018-07-16T08:48:05.506Z,20.11
2018-07-16T08:51:10.751Z,20.21
2018-07-16T08:54:15.653Z,20.31
2018-07-16T08:57:22.571Z,20.42
2018-07-16T09:00:27.476Z,20.54
2018-07-16T09:03:32.876Z,20.70
2018-07-16T09:06:38.807Z,20.81
2018-07-16T09:09:44.865Z,20.93
2018-07-16T09:12:50.790Z,21.07
2018-07-16T09:15:57.620Z,21.21
2018-07-16T09:19:03.175Z,21.34
2018-07-16T09:22:09.224Z,21.46
2018-07-16T09:25:15.060Z,21.60
2018-07-16T09:28:19.974Z,21.72
2018-07-16T09:31:24.863Z,21.86
2018-07-16T09:34:30.909Z,22.00
2018-07-16T09:37:36.552Z,22.11
2018-07-16T09:40:42.275Z,22.24
2018-07-16T09:43:48.075Z,22.36
2018-07-16T09:46:53.482Z,22.47
2018-07-16T09:49:59.369Z,22.64
2018-07-16T09:53:04.510Z,22.78
2018-07-16T09:56:10.249Z,22.90
2018-07-16T09:59:16.458Z,22.97
2018-07-16T10:02:22.371Z,23.01
2018-07-16T10:05:28.259Z,23.21
2018-07-16T10:08:34.191Z,23.40
2018-07-16T10:11:40.511Z,23.52
2018-07-16T10:14:46.443Z,23.54
2018-07-16T10:17:52.617Z,23.56
2018-07-16T10:20:57.540Z,23.55
2018-07-16T10:24:03.428Z,23.55
2018-07-16T10:27:08.305Z,23.52
2018-07-16T10:30:13.223Z,23.50
2018-07-16T10:33:18.628Z,23.51
2018-07-16T10:36:24.507Z,23.52
2018-07-16T10:39:30.441Z,23.57
2018-07-16T10:42:35.956Z,23.63
2018-07-16T10:45:41.843Z,23.64
2018-07-16T10:48:47.366Z,23.69
2018-07-16T10:51:52.283Z,23.75
2018-07-16T10:54:58.508Z,23.82
2018-07-16T10:58:04.233Z,23.87
2018-07-16T11:01:09.115Z,23.95
2018-07-16T11:04:13.988Z,24.03
2018-07-16T11:07:19.848Z,24.11
2018-07-16T11:10:25.038Z,24.14
2018-07-16T11:13:29.936Z,24.20
2018-07-16T11:16:34.845Z,24.24
2018-07-16T11:19:39.755Z,24.25
2018-07-16T11:22:44.964Z,24.30
2018-07-16T11:25:53.694Z,24.31
2018-07-16T11:29:00.161Z,24.30
2018-07-16T11:32:05.914Z,24.35
2018-07-16T11:35:10.837Z,24.39
2018-07-16T11:38:16.804Z,24.41
2018-07-16T11:41:23.051Z,24.47
2018-07-16T11:44:28.468Z,24.51
2018-07-16T11:47:33.375Z,24.55
2018-07-16T11:50:39.367Z,24.54
2018-07-16T11:53:44.997Z,24.57
2018-07-16T11:56:51.105Z,24.61
2018-07-16T11:59:56.008Z,24.63
2018-07-16T12:03:01.216Z,24.69
2018-07-16T12:06:10.268Z,24.77
2018-07-16T12:09:16.900Z,24.82
2018-07-16T12:12:22.645Z,24.89
2018-07-16T12:15:28.661Z,24.93
2018-07-16T12:18:34.493Z,24.98
2018-07-16T12:21:39.755Z,25.01
2018-07-16T12:24:45.637Z,25.06
2018-07-16T12:27:50.548Z,25.12
2018-07-16T12:30:55.779Z,25.14
2018-07-16T12:34:01.620Z,25.19
2018-07-16T12:37:07.029Z,25.22
2018-07-16T12:40:11.935Z,25.26
2018-07-16T12:43:17.811Z,25.30
2018-07-16T12:46:23.071Z,25.32
2018-07-16T12:49:27.980Z,25.39
2018-07-16T12:52:33.392Z,25.41
2018-07-16T12:55:39.218Z,25.46
2018-07-16T12:58:44.107Z,25.51
2018-07-16T13:01:49.745Z,25.58
2018-07-16T13:04:55.566Z,25.67
2018-07-16T13:08:01.469Z,25.72
2018-07-16T13:11:06.396Z,25.81
2018-07-16T13:14:11.305Z,25.85
2018-07-16T13:17:16.938Z,25.91
2018-07-16T13:20:21.860Z,25.95
2018-07-16T13:23:27.692Z,26.00
2018-07-16T13:26:32.622Z,26.04
2018-07-16T13:29:37.904Z,26.09
2018-07-16T13:32:43.073Z,26.12
2018-07-16T13:35:48.300Z,26.17
2018-07-16T13:38:55.136Z,26.22
2018-07-16T13:42:00.037Z,26.28
2018-07-16T13:45:04.972Z,26.35
2018-07-16T13:48:09.850Z,26.41
2018-07-16T13:51:15.634Z,26.44
2018-07-16T13:54:20.946Z,26.46
2018-07-16T13:57:26.783Z,26.52
2018-07-16T14:00:31.676Z,26.53
2018-07-16T14:03:36.583Z,26.56
2018-07-16T14:06:43.378Z,26.61
2018-07-16T14:09:48.857Z,26.67
2018-07-16T14:12:54.064Z,26.71
2018-07-16T14:16:00.129Z,26.76
2018-07-16T14:19:05.060Z,26.79
2018-07-16T14:22:09.919Z,26.82
2018-07-16T14:25:16.468Z,26.83
2018-07-16T14:28:22.617Z,26.86
2018-07-16T14:31:27.476Z,26.87
2018-07-16T14:34:34.204Z,26.89
2018-07-16T14:37:39.935Z,26.94
2018-07-16T14:40:46.179Z,26.93
2018-07-16T14:43:51.931Z,26.96
2018-07-16T14:46:58.763Z,26.98
2018-07-16T14:50:04.319Z,27.00
2018-07-16T14:53:10.023Z,27.00
2018-07-16T14:56:14.976Z,27.00
2018-07-16T14:59:20.822Z,27.02
2018-07-16T15:02:26.043Z,27.04
2018-07-16T15:05:32.758Z,27.06
2018-07-16T15:08:38.408Z,27.08
2018-07-16T15:11:44.354Z,27.09
2018-07-16T15:14:51.567Z,27.10
2018-07-16T15:17:57.079Z,27.12
2018-07-16T15:21:02.341Z,27.14
2018-07-16T15:24:07.054Z,27.15
2018-07-16T15:27:11.984Z,27.14
2018-07-16T15:30:17.028Z,27.14
2018-07-16T15:33:21.938Z,27.15
2018-07-16T15:36:26.839Z,27.13
2018-07-16T15:39:32.548Z,27.15
2018-07-16T15:42:37.435Z,27.18
2018-07-16T15:45:43.321Z,27.16
2018-07-16T15:48:49.316Z,27.15
2018-07-16T15:51:55.186Z,27.14
2018-07-16T15:55:00.996Z,27.13
2018-07-16T15:58:06.064Z,27.14
2018-07-16T16:01:10.969Z,27.11
2018-07-16T16:04:15.878Z,27.09
2018-07-16T16:07:21.637Z,27.04
2018-07-16T16:10:27.465Z,27.03
2018-07-16T16:13:34.687Z,27.00
2018-07-16T16:16:40.404Z,26.98
2018-07-16T16:19:45.417Z,26.96
2018-07-16T16:22:50.445Z,26.91
2018-07-16T16:25:55.597Z,26.87
2018-07-16T16:29:00.523Z,26.84
2018-07-16T16:32:06.544Z,26.79
2018-07-16T16:35:11.449Z,26.76
2018-07-16T16:38:16.685Z,26.70
2018-07-16T16:41:22.320Z,26.66
2018-07-16T16:44:28.077Z,26.62
2018-07-16T16:47:33.045Z,26.58
2018-07-16T16:50:39.212Z,26.51
2018-07-16T16:53:45.022Z,26.45
2018-07-16T16:56:51.080Z,26.38
2018-07-16T16:59:57.261Z,26.29
2018-07-16T17:03:02.340Z,26.23
2018-07-16T17:06:08.601Z,26.17
2018-07-16T17:09:14.639Z,26.11
2018-07-16T17:12:20.064Z,26.05
2018-07-16T17:15:25.020Z,25.97
2018-07-16T17:18:30.335Z,25.91
2018-07-16T17:21:36.221Z,25.83
2018-07-16T17:24:41.215Z,25.78
2018-07-16T17:27:46.353Z,25.69
2018-07-16T17:30:51.483Z,25.64
2018-07-16T17:33:57.424Z,25.57
2018-07-16T17:37:02.337Z,25.50
2018-07-16T17:40:07.320Z,25.43
2018-07-16T17:43:13.079Z,25.36
2018-07-16T17:46:18.927Z,25.27
2018-07-16T17:49:24.161Z,25.18
2018-07-16T17:52:30.008Z,25.10
2018-07-16T17:55:35.859Z,25.02
2018-07-16T17:58:41.589Z,24.94
2018-07-16T18:01:47.672Z,24.86
2018-07-16T18:04:53.412Z,24.79
2018-07-16T18:07:58.388Z,24.71
2018-07-16T18:11:03.300Z,24.66
2018-07-16T18:14:08.575Z,24.60
2018-07-16T18:17:13.548Z,24.51
2018-07-16T18:20:19.423Z,24.44
2018-07-16T18:23:25.478Z,24.39
2018-07-16T18:26:31.136Z,24.31
2018-07-16T18:29:36.986Z,24.24
2018-07-16T18:32:41.902Z,24.17
2018-07-16T18:35:47.780Z,24.11
2018-07-16T18:38:52.762Z,24.04
2018-07-16T18:41:59.481Z,23.96
2018-07-16T18:45:05.205Z,23.87
2018-07-16T18:48:11.081Z,23.80
2018-07-16T18:51:16.043Z,23.72
2018-07-16T18:54:20.945Z,23.62
2018-07-16T18:57:26.836Z,23.53
2018-07-16T19:00:31.777Z,23.45
2018-07-16T19:03:38.018Z,23.38
2018-07-16T19:06:43.958Z,23.29
2018-07-16T19:09:50.159Z,23.21
2018-07-16T19:12:55.160Z,23.13
2018-07-16T19:16:00.489Z,23.05
2018-07-16T19:19:06.047Z,22.96
2018-07-16T19:22:11.479Z,22.88
2018-07-16T19:25:16.621Z,22.80
2018-07-16T19:28:22.526Z,22.72
2018-07-16T19:31:28.523Z,22.64
2018-07-16T19:34:34.402Z,22.55
2018-07-16T19:37:39.383Z,22.48
2018-07-16T19:40:44.297Z,22.39
2018-07-16T19:43:49.566Z,22.30
2018-07-16T19:46:55.189Z,22.23
2018-07-16T19:50:02.043Z,22.15
2018-07-16T19:53:08.008Z,22.08
2018-07-16T19:56:13.628Z,22.01
2018-07-16T19:59:19.720Z,21.92
2018-07-16T20:02:25.596Z,21.84
2018-07-16T20:05:31.027Z,21.75
2018-07-16T20:08:36.667Z,21.69
2018-07-16T20:11:41.889Z,21.60
2018-07-16T20:14:48.506Z,21.51
2018-07-16T20:17:53.364Z,21.44
2018-07-16T20:20:59.695Z,21.35
2018-07-16T20:24:05.801Z,21.27
2018-07-16T20:27:10.700Z,21.21
2018-07-16T20:30:15.623Z,21.12
2018-07-16T20:33:20.843Z,21.06
2018-07-16T20:36:26.693Z,20.99
2018-07-16T20:39:31.572Z,20.89
2018-07-16T20:42:37.328Z,20.84
2018-07-16T20:45:43.093Z,20.77
2018-07-16T20:48:48.934Z,20.71
2018-07-16T20:51:54.796Z,20.64
2018-07-16T20:54:59.718Z,20.57
2018-07-16T20:58:04.599Z,20.50
2018-07-16T21:01:09.477Z,20.44
2018-07-16T21:04:15.189Z,20.38
2018-07-16T21:07:20.107Z,20.32
2018-07-16T21:10:26.786Z,20.25
2018-07-16T21:13:48.579Z,20.20
2018-07-16T21:16:58.657Z,20.13
2018-07-16T21:20:09.135Z,20.07
2018-07-16T21:23:14.044Z,20.00
2018-07-16T21:26:19.088Z,19.93
2018-07-16T21:29:25.215Z,19.86
2018-07-16T21:32:31.135Z,19.80
2018-07-16T21:35:36.532Z,19.73
2018-07-16T21:38:42.366Z,19.66
2018-07-16T21:41:48.151Z,19.60
2018-07-16T21:44:53.380Z,19.53
2018-07-16T21:47:58.291Z,19.45
2018-07-16T21:51:03.443Z,19.39
2018-07-16T21:54:08.418Z,19.32
2018-07-16T21:57:14.224Z,19.26
2018-07-16T22:00:29.125Z,19.19
2018-07-16T22:03:35.938Z,19.13
2018-07-16T22:06:41.479Z,19.07
2018-07-16T22:09:46.408Z,19.01
2018-07-16T22:12:51.316Z,18.96
2018-07-16T22:15:56.571Z,18.89
2018-07-16T22:19:02.109Z,18.81
2018-07-16T22:22:08.294Z,18.75
2018-07-16T22:25:14.070Z,18.73
2018-07-16T22:28:19.924Z,18.64
2018-07-16T22:31:25.991Z,18.60
2018-07-16T22:34:31.225Z,18.54
2018-07-16T22:37:37.235Z,18.48
2018-07-16T22:40:44.423Z,18.43
2018-07-16T22:43:50.379Z,18.38
2018-07-16T22:46:57.448Z,18.31
2018-07-16T22:50:03.200Z,18.27
2018-07-16T22:53:09.219Z,18.21
2018-07-16T22:56:15.292Z,18.17
2018-07-16T22:59:21.259Z,18.11
2018-07-16T23:02:27.132Z,18.05
2018-07-16T23:05:33.427Z,18.00
2018-07-16T23:08:39.651Z,17.95
2018-07-16T23:11:44.557Z,17.91
2018-07-16T23:14:50.656Z,17.88
2018-07-16T23:17:57.344Z,17.81
2018-07-16T23:21:03.116Z,17.75
2018-07-16T23:24:08.957Z,17.71
2018-07-16T23:27:14.779Z,17.67
2018-07-16T23:30:19.683Z,17.62
2018-07-16T23:33:24.580Z,17.59
2018-07-16T23:36:30.428Z,17.54
2018-07-16T23:39:35.967Z,17.50
2018-07-16T23:42:42.161Z,17.44
2018-07-16T23:45:47.868Z,17.41
2018-07-16T23:48:53.673Z,17.37
2018-07-16T23:51:59.790Z,17.36
2018-07-16T23:55:05.324Z,17.28
2018-07-16T23:58:10.523Z,17.22
